sensor_id;sensor_type;location;lat;lon;timestamp;P1;durP1;ratioP1;P2;durP2;ratioP2
20988;SDS011;10653;47.052;15.410;2022-10-30T00:02:01;14.70;;;13.17;;
20988;SDS011;10653;47.052;15.410;2022-10-30T00:04:27;15.57;;;13.47;;
20988;SDS011;10653;47.052;15.410;2022-10-30T00:06:53;16.00;;;12.60;;
20988;SDS011;10653;47.052;15.410;2022-10-30T00:09:19;20.80;;;14.73;;
20988;SDS011;10653;47.052;15.410;2022-10-30T00:11:45;14.53;;;13.03;;
20988;SDS011;10653;47.052;15.410;2022-10-30T00:14:11;14.10;;;12.60;;
20988;SDS011;10653;47.052;15.410;2022-10-30T00:16:38;18.00;;;14.20;;
20988;SDS011;10653;47.052;15.410;2022-10-30T00:19:04;16.10;;;13.27;;
20988;SDS011;10653;47.052;15.410;2022-10-30T00:21:30;13.23;;;11.93;;
20988;SDS011;10653;47.052;15.410;2022-10-30T00:23:56;12.73;;;10.60;;
20988;SDS011;10653;47.052;15.410;2022-10-30T00:26:23;12.80;;;11.23;;
20988;SDS011;10653;47.052;15.410;2022-10-30T00:28:53;17.77;;;13.00;;
20988;SDS011;10653;47.052;15.410;2022-10-30T00:31:19;12.87;;;11.00;;
20988;SDS011;10653;47.052;15.410;2022-10-30T00:33:49;13.23;;;11.93;;
20988;SDS011;10653;47.052;15.410;2022-10-30T00:36:15;13.23;;;11.93;;
20988;SDS011;10653;47.052;15.410;2022-10-30T00:38:41;15.63;;;12.97;;
20988;SDS011;10653;47.052;15.410;2022-10-30T00:41:12;13.00;;;11.70;;
20988;SDS011;10653;47.052;15.410;2022-10-30T00:43:38;13.33;;;11.70;;
20988;SDS011;10653;47.052;15.410;2022-10-30T00:46:06;13.43;;;12.10;;
20988;SDS011;10653;47.052;15.410;2022-10-30T00:48:36;13.00;;;11.70;;
20988;SDS011;10653;47.052;15.410;2022-10-30T00:51:03;12.87;;;11.57;;
20988;SDS011;10653;47.052;15.410;2022-10-30T00:53:30;14.90;;;11.93;;
20988;SDS011;10653;47.052;15.410;2022-10-30T00:55:57;14.50;;;13.00;;
20988;SDS011;10653;47.052;15.410;2022-10-30T00:58:32;12.80;;;11.27;;
20988;SDS011;10653;47.052;15.410;2022-10-30T01:00:59;12.97;;;11.67;;
20988;SDS011;10653;47.052;15.410;2022-10-30T01:03:27;16.77;;;13.63;;
20988;SDS011;10653;47.052;15.410;2022-10-30T01:05:56;15.53;;;13.43;;
20988;SDS011;10653;47.052;15.410;2022-10-30T01:08:22;12.33;;;11.13;;
20988;SDS011;10653;47.052;15.410;2022-10-30T01:10:48;11.50;;;10.30;;
20988;SDS011;10653;47.052;15.410;2022-10-30T01:13:14;11.47;;;10.37;;
20988;SDS011;10653;47.052;15.410;2022-10-30T01:15:45;10.33;;;9.27;;
20988;SDS011;10653;47.052;15.410;2022-10-30T01:26:20;12.43;;;11.10;;
20988;SDS011;10653;47.052;15.410;2022-10-30T01:37:00;18.97;;;13.73;;
20988;SDS011;10653;47.052;15.410;2022-10-30T01:39:15;31.83;;;13.10;;
20988;SDS011;10653;47.052;15.410;2022-10-30T01:41:42;16.87;;;13.57;;
20988;SDS011;10653;47.052;15.410;2022-10-30T01:44:17;16.83;;;12.70;;
20988;SDS011;10653;47.052;15.410;2022-10-30T01:46:49;17.87;;;12.37;;
20988;SDS011;10653;47.052;15.410;2022-10-30T01:49:36;17.77;;;13.50;;
20988;SDS011;10653;47.052;15.410;2022-10-30T01:54:46;19.87;;;14.43;;
20988;SDS011;10653;47.052;15.410;2022-10-30T02:02:10;15.03;;;13.33;;
20988;SDS011;10653;47.052;15.410;2022-10-30T02:04:36;18.23;;;15.37;;
20988;SDS011;10653;47.052;15.410;2022-10-30T02:07:02;16.90;;;14.23;;
20988;SDS011;10653;47.052;15.410;2022-10-30T02:09:29;17.60;;;13.20;;
20988;SDS011;10653;47.052;15.410;2022-10-30T02:11:55;14.70;;;13.10;;
20988;SDS011;10653;47.052;15.410;2022-10-30T02:14:26;12.57;;;11.37;;
20988;SDS011;10653;47.052;15.410;2022-10-30T02:16:53;19.60;;;13.00;;
20988;SDS011;10653;47.052;15.410;2022-10-30T02:19:21;13.87;;;12.53;;
20988;SDS011;10653;47.052;15.410;2022-10-30T02:21:48;17.27;;;14.13;;
20988;SDS011;10653;47.052;15.410;2022-10-30T02:24:14;15.77;;;13.93;;
20988;SDS011;10653;47.052;15.410;2022-10-30T02:26:40;16.40;;;14.20;;
20988;SDS011;10653;47.052;15.410;2022-10-30T02:29:06;16.50;;;14.20;;
20988;SDS011;10653;47.052;15.410;2022-10-30T02:31:32;14.83;;;13.37;;
20988;SDS011;10653;47.052;15.410;2022-10-30T02:33:58;20.73;;;14.00;;
20988;SDS011;10653;47.052;15.410;2022-10-30T02:36:24;15.20;;;13.20;;
20988;SDS011;10653;47.052;15.410;2022-10-30T02:38:50;22.90;;;13.30;;
20988;SDS011;10653;47.052;15.410;2022-10-30T02:41:16;22.37;;;13.73;;
20988;SDS011;10653;47.052;15.410;2022-10-30T02:43:42;15.50;;;13.73;;
20988;SDS011;10653;47.052;15.410;2022-10-30T02:46:08;14.17;;;12.67;;
20988;SDS011;10653;47.052;15.410;2022-10-30T02:48:34;15.47;;;13.03;;
20988;SDS011;10653;47.052;15.410;2022-10-30T02:51:01;14.73;;;13.10;;
20988;SDS011;10653;47.052;15.410;2022-10-30T02:53:27;17.67;;;12.30;;
20988;SDS011;10653;47.052;15.410;2022-10-30T02:55:53;14.37;;;12.77;;
20988;SDS011;10653;47.052;15.410;2022-10-30T02:58:19;16.30;;;14.60;;
20988;SDS011;10653;47.052;15.410;2022-10-30T03:00:45;18.17;;;12.40;;
20988;SDS011;10653;47.052;15.410;2022-10-30T03:03:11;21.03;;;14.13;;
20988;SDS011;10653;47.052;15.410;2022-10-30T03:05:37;19.27;;;14.63;;
20988;SDS011;10653;47.052;15.410;2022-10-30T03:08:03;19.10;;;14.10;;
20988;SDS011;10653;47.052;15.410;2022-10-30T03:10:29;15.50;;;13.90;;
20988;SDS011;10653;47.052;15.410;2022-10-30T03:12:55;15.30;;;13.60;;
20988;SDS011;10653;47.052;15.410;2022-10-30T03:15:23;16.70;;;14.60;;
20988;SDS011;10653;47.052;15.410;2022-10-30T03:17:49;15.27;;;13.20;;
20988;SDS011;10653;47.052;15.410;2022-10-30T03:20:16;18.87;;;14.33;;
20988;SDS011;10653;47.052;15.410;2022-10-30T03:22:42;16.23;;;14.57;;
20988;SDS011;10653;47.052;15.410;2022-10-30T03:25:08;15.63;;;13.97;;
20988;SDS011;10653;47.052;15.410;2022-10-30T03:27:34;14.10;;;12.70;;
20988;SDS011;10653;47.052;15.410;2022-10-30T03:30:00;16.13;;;13.73;;
20988;SDS011;10653;47.052;15.410;2022-10-30T03:32:26;15.10;;;13.57;;
20988;SDS011;10653;47.052;15.410;2022-10-30T03:34:52;14.33;;;12.83;;
20988;SDS011;10653;47.052;15.410;2022-10-30T03:37:18;15.80;;;13.70;;
20988;SDS011;10653;47.052;15.410;2022-10-30T03:39:44;22.63;;;13.83;;
20988;SDS011;10653;47.052;15.410;2022-10-30T03:42:10;14.53;;;13.10;;
20988;SDS011;10653;47.052;15.410;2022-10-30T03:44:36;17.70;;;13.30;;
20988;SDS011;10653;47.052;15.410;2022-10-30T03:47:02;13.23;;;11.93;;
20988;SDS011;10653;47.052;15.410;2022-10-30T03:49:28;17.33;;;13.30;;
20988;SDS011;10653;47.052;15.410;2022-10-30T03:51:54;15.80;;;14.20;;
20988;SDS011;10653;47.052;15.410;2022-10-30T03:54:20;14.07;;;12.57;;
20988;SDS011;10653;47.052;15.410;2022-10-30T03:56:46;14.40;;;12.90;;
20988;SDS011;10653;47.052;15.410;2022-10-30T03:59:12;15.33;;;13.87;;
20988;SDS011;10653;47.052;15.410;2022-10-30T04:01:38;14.00;;;12.60;;
20988;SDS011;10653;47.052;15.410;2022-10-30T04:04:04;15.17;;;13.67;;
20988;SDS011;10653;47.052;15.410;2022-10-30T04:06:30;13.90;;;12.50;;
20988;SDS011;10653;47.052;15.410;2022-10-30T04:08:56;25.00;;;15.53;;
20988;SDS011;10653;47.052;15.410;2022-10-30T04:11:22;17.30;;;15.10;;
20988;SDS011;10653;47.052;15.410;2022-10-30T04:13:48;16.00;;;14.43;;
20988;SDS011;10653;47.052;15.410;2022-10-30T04:16:14;19.67;;;14.30;;
20988;SDS011;10653;47.052;15.410;2022-10-30T04:18:40;15.60;;;14.00;;
20988;SDS011;10653;47.052;15.410;2022-10-30T04:21:06;14.83;;;13.33;;
20988;SDS011;10653;47.052;15.410;2022-10-30T04:23:32;15.23;;;13.70;;
20988;SDS011;10653;47.052;15.410;2022-10-30T04:25:59;15.03;;;13.43;;
20988;SDS011;10653;47.052;15.410;2022-10-30T04:28:26;15.73;;;14.10;;
20988;SDS011;10653;47.052;15.410;2022-10-30T04:30:52;14.80;;;13.30;;
20988;SDS011;10653;47.052;15.410;2022-10-30T04:33:18;15.73;;;14.20;;
20988;SDS011;10653;47.052;15.410;2022-10-30T04:35:44;14.63;;;13.33;;
20988;SDS011;10653;47.052;15.410;2022-10-30T04:38:13;13.63;;;12.33;;
20988;SDS011;10653;47.052;15.410;2022-10-30T04:40:41;15.83;;;13.00;;
20988;SDS011;10653;47.052;15.410;2022-10-30T04:43:07;15.60;;;14.10;;
20988;SDS011;10653;47.052;15.410;2022-10-30T04:45:34;18.47;;;14.87;;
20988;SDS011;10653;47.052;15.410;2022-10-30T04:48:07;20.37;;;16.30;;
20988;SDS011;10653;47.052;15.410;2022-10-30T04:50:34;20.77;;;17.73;;
20988;SDS011;10653;47.052;15.410;2022-10-30T04:53:01;22.40;;;17.40;;
20988;SDS011;10653;47.052;15.410;2022-10-30T04:55:28;23.10;;;16.33;;
20988;SDS011;10653;47.052;15.410;2022-10-30T04:57:55;19.93;;;16.80;;
20988;SDS011;10653;47.052;15.410;2022-10-30T05:00:21;18.60;;;16.70;;
20988;SDS011;10653;47.052;15.410;2022-10-30T05:02:47;18.20;;;16.23;;
20988;SDS011;10653;47.052;15.410;2022-10-30T05:05:13;17.10;;;14.97;;
20988;SDS011;10653;47.052;15.410;2022-10-30T05:07:39;17.10;;;15.30;;
20988;SDS011;10653;47.052;15.410;2022-10-30T05:10:05;24.33;;;17.10;;
20988;SDS011;10653;47.052;15.410;2022-10-30T05:12:31;23.70;;;15.63;;
20988;SDS011;10653;47.052;15.410;2022-10-30T05:14:57;18.60;;;15.17;;
20988;SDS011;10653;47.052;15.410;2022-10-30T05:17:23;19.67;;;14.40;;
20988;SDS011;10653;47.052;15.410;2022-10-30T05:19:49;23.87;;;15.17;;
20988;SDS011;10653;47.052;15.410;2022-10-30T05:22:15;18.10;;;13.80;;
20988;SDS011;10653;47.052;15.410;2022-10-30T05:24:41;15.90;;;14.40;;
20988;SDS011;10653;47.052;15.410;2022-10-30T05:27:07;16.70;;;13.70;;
20988;SDS011;10653;47.052;15.410;2022-10-30T05:29:33;17.27;;;14.13;;
20988;SDS011;10653;47.052;15.410;2022-10-30T05:31:59;20.90;;;16.33;;
20988;SDS011;10653;47.052;15.410;2022-10-30T05:34:25;16.00;;;13.40;;
20988;SDS011;10653;47.052;15.410;2022-10-30T05:36:51;17.67;;;13.87;;
20988;SDS011;10653;47.052;15.410;2022-10-30T05:39:17;15.60;;;14.00;;
20988;SDS011;10653;47.052;15.410;2022-10-30T05:41:43;15.40;;;12.70;;
20988;SDS011;10653;47.052;15.410;2022-10-30T05:44:09;15.13;;;13.53;;
20988;SDS011;10653;47.052;15.410;2022-10-30T05:46:35;16.47;;;14.63;;
20988;SDS011;10653;47.052;15.410;2022-10-30T05:49:01;12.80;;;11.60;;
20988;SDS011;10653;47.052;15.410;2022-10-30T05:51:28;17.20;;;14.03;;
20988;SDS011;10653;47.052;15.410;2022-10-30T05:53:54;15.20;;;13.80;;
20988;SDS011;10653;47.052;15.410;2022-10-30T05:56:20;17.03;;;15.33;;
20988;SDS011;10653;47.052;15.410;2022-10-30T05:58:49;17.50;;;15.70;;
20988;SDS011;10653;47.052;15.410;2022-10-30T06:01:15;16.60;;;15.00;;
20988;SDS011;10653;47.052;15.410;2022-10-30T06:03:41;15.83;;;14.40;;
20988;SDS011;10653;47.052;15.410;2022-10-30T06:06:07;16.30;;;13.53;;
20988;SDS011;10653;47.052;15.410;2022-10-30T06:08:34;15.87;;;14.13;;
20988;SDS011;10653;47.052;15.410;2022-10-30T06:11:00;15.53;;;13.93;;
20988;SDS011;10653;47.052;15.410;2022-10-30T06:13:26;16.37;;;14.57;;
20988;SDS011;10653;47.052;15.410;2022-10-30T06:15:55;14.77;;;13.23;;
20988;SDS011;10653;47.052;15.410;2022-10-30T06:18:21;17.20;;;12.97;;
20988;SDS011;10653;47.052;15.410;2022-10-30T06:20:47;18.30;;;13.27;;
20988;SDS011;10653;47.052;15.410;2022-10-30T06:23:13;14.93;;;13.43;;
20988;SDS011;10653;47.052;15.410;2022-10-30T06:25:39;13.47;;;12.23;;
20988;SDS011;10653;47.052;15.410;2022-10-30T06:28:06;16.70;;;12.20;;
20988;SDS011;10653;47.052;15.410;2022-10-30T06:30:32;14.23;;;12.83;;
20988;SDS011;10653;47.052;15.410;2022-10-30T06:32:58;14.97;;;13.43;;
20988;SDS011;10653;47.052;15.410;2022-10-30T06:35:24;16.63;;;14.20;;
20988;SDS011;10653;47.052;15.410;2022-10-30T06:37:51;14.20;;;12.80;;
20988;SDS011;10653;47.052;15.410;2022-10-30T06:40:18;13.20;;;11.80;;
20988;SDS011;10653;47.052;15.410;2022-10-30T06:42:45;15.80;;;14.17;;
20988;SDS011;10653;47.052;15.410;2022-10-30T06:45:11;14.87;;;13.43;;
20988;SDS011;10653;47.052;15.410;2022-10-30T06:47:37;13.27;;;11.97;;
20988;SDS011;10653;47.052;15.410;2022-10-30T06:50:04;13.43;;;12.03;;
20988;SDS011;10653;47.052;15.410;2022-10-30T06:52:30;13.93;;;12.60;;
20988;SDS011;10653;47.052;15.410;2022-10-30T06:54:56;12.50;;;11.23;;
20988;SDS011;10653;47.052;15.410;2022-10-30T06:57:22;14.67;;;12.90;;
20988;SDS011;10653;47.052;15.410;2022-10-30T06:59:48;13.17;;;12.00;;
20988;SDS011;10653;47.052;15.410;2022-10-30T07:02:14;15.10;;;13.50;;
20988;SDS011;10653;47.052;15.410;2022-10-30T07:04:40;12.77;;;11.67;;
20988;SDS011;10653;47.052;15.410;2022-10-30T07:07:06;12.40;;;11.30;;
20988;SDS011;10653;47.052;15.410;2022-10-30T07:09:32;14.70;;;13.20;;
20988;SDS011;10653;47.052;15.410;2022-10-30T07:11:58;13.37;;;12.27;;
20988;SDS011;10653;47.052;15.410;2022-10-30T07:14:24;13.93;;;12.70;;
20988;SDS011;10653;47.052;15.410;2022-10-30T07:16:52;15.03;;;13.70;;
20988;SDS011;10653;47.052;15.410;2022-10-30T07:19:18;13.87;;;12.63;;
20988;SDS011;10653;47.052;15.410;2022-10-30T07:21:44;13.83;;;12.60;;
20988;SDS011;10653;47.052;15.410;2022-10-30T07:24:10;15.27;;;13.77;;
20988;SDS011;10653;47.052;15.410;2022-10-30T07:26:36;14.13;;;12.83;;
20988;SDS011;10653;47.052;15.410;2022-10-30T07:29:03;15.17;;;13.77;;
20988;SDS011;10653;47.052;15.410;2022-10-30T07:31:29;14.50;;;13.30;;
20988;SDS011;10653;47.052;15.410;2022-10-30T07:33:55;14.70;;;13.20;;
20988;SDS011;10653;47.052;15.410;2022-10-30T07:36:21;13.50;;;12.20;;
20988;SDS011;10653;47.052;15.410;2022-10-30T07:38:48;14.33;;;13.03;;
20988;SDS011;10653;47.052;15.410;2022-10-30T07:41:14;14.30;;;12.90;;
20988;SDS011;10653;47.052;15.410;2022-10-30T07:43:40;14.47;;;13.10;;
20988;SDS011;10653;47.052;15.410;2022-10-30T07:46:06;13.90;;;12.60;;
20988;SDS011;10653;47.052;15.410;2022-10-30T07:48:32;13.57;;;12.17;;
20988;SDS011;10653;47.052;15.410;2022-10-30T07:50:58;13.03;;;11.57;;
20988;SDS011;10653;47.052;15.410;2022-10-30T07:53:24;12.87;;;11.80;;
20988;SDS011;10653;47.052;15.410;2022-10-30T07:55:50;12.60;;;11.60;;
20988;SDS011;10653;47.052;15.410;2022-10-30T07:58:16;10.60;;;9.60;;
20988;SDS011;10653;47.052;15.410;2022-10-30T08:00:42;11.20;;;10.27;;
20988;SDS011;10653;47.052;15.410;2022-10-30T08:03:08;12.20;;;10.07;;
20988;SDS011;10653;47.052;15.410;2022-10-30T08:05:35;12.10;;;10.90;;
20988;SDS011;10653;47.052;15.410;2022-10-30T08:08:01;12.03;;;10.77;;
20988;SDS011;10653;47.052;15.410;2022-10-30T08:10:27;11.37;;;10.27;;
20988;SDS011;10653;47.052;15.410;2022-10-30T08:12:54;12.43;;;10.87;;
20988;SDS011;10653;47.052;15.410;2022-10-30T08:15:20;10.03;;;9.03;;
20988;SDS011;10653;47.052;15.410;2022-10-30T08:17:47;9.73;;;8.87;;
20988;SDS011;10653;47.052;15.410;2022-10-30T08:20:13;10.30;;;9.30;;
20988;SDS011;10653;47.052;15.410;2022-10-30T08:22:47;11.57;;;10.57;;
20988;SDS011;10653;47.052;15.410;2022-10-30T08:25:14;10.63;;;9.73;;
20988;SDS011;10653;47.052;15.410;2022-10-30T08:27:48;10.00;;;9.10;;
20988;SDS011;10653;47.052;15.410;2022-10-30T08:30:14;9.77;;;8.83;;
20988;SDS011;10653;47.052;15.410;2022-10-30T08:32:40;9.50;;;8.70;;
20988;SDS011;10653;47.052;15.410;2022-10-30T08:35:06;9.07;;;8.20;;
20988;SDS011;10653;47.052;15.410;2022-10-30T08:37:32;9.53;;;8.60;;
20988;SDS011;10653;47.052;15.410;2022-10-30T08:39:58;9.00;;;8.20;;
20988;SDS011;10653;47.052;15.410;2022-10-30T08:42:24;8.63;;;7.83;;
20988;SDS011;10653;47.052;15.410;2022-10-30T08:44:50;8.93;;;8.17;;
20988;SDS011;10653;47.052;15.410;2022-10-30T08:47:16;9.20;;;7.00;;
20988;SDS011;10653;47.052;15.410;2022-10-30T08:49:42;12.90;;;9.30;;
20988;SDS011;10653;47.052;15.410;2022-10-30T08:52:08;8.83;;;7.93;;
20988;SDS011;10653;47.052;15.410;2022-10-30T08:54:34;9.13;;;8.27;;
20988;SDS011;10653;47.052;15.410;2022-10-30T08:57:00;12.80;;;9.03;;
20988;SDS011;10653;47.052;15.410;2022-10-30T08:59:26;9.20;;;8.30;;
20988;SDS011;10653;47.052;15.410;2022-10-30T09:01:52;10.43;;;8.30;;
20988;SDS011;10653;47.052;15.410;2022-10-30T09:04:18;14.70;;;8.77;;
20988;SDS011;10653;47.052;15.410;2022-10-30T09:06:45;11.43;;;8.43;;
20988;SDS011;10653;47.052;15.410;2022-10-30T09:09:11;9.00;;;7.57;;
20988;SDS011;10653;47.052;15.410;2022-10-30T09:11:38;8.53;;;7.63;;
20988;SDS011;10653;47.052;15.410;2022-10-30T09:14:04;7.90;;;7.17;;
20988;SDS011;10653;47.052;15.410;2022-10-30T09:16:30;11.10;;;7.80;;
20988;SDS011;10653;47.052;15.410;2022-10-30T09:18:56;7.33;;;6.60;;
20988;SDS011;10653;47.052;15.410;2022-10-30T09:21:22;8.47;;;7.30;;
20988;SDS011;10653;47.052;15.410;2022-10-30T09:23:48;7.30;;;6.53;;
20988;SDS011;10653;47.052;15.410;2022-10-30T09:26:14;9.70;;;7.20;;
20988;SDS011;10653;47.052;15.410;2022-10-30T09:28:40;8.93;;;6.53;;
20988;SDS011;10653;47.052;15.410;2022-10-30T09:31:06;12.00;;;6.90;;
20988;SDS011;10653;47.052;15.410;2022-10-30T09:33:32;10.03;;;6.77;;
20988;SDS011;10653;47.052;15.410;2022-10-30T09:35:58;9.07;;;6.10;;
20988;SDS011;10653;47.052;15.410;2022-10-30T09:38:26;10.10;;;6.30;;
20988;SDS011;10653;47.052;15.410;2022-10-30T09:49:20;7.70;;;6.10;;
20988;SDS011;10653;47.052;15.410;2022-10-30T09:56:38;6.60;;;5.37;;
20988;SDS011;10653;47.052;15.410;2022-10-30T10:06:32;11.63;;;6.23;;
20988;SDS011;10653;47.052;15.410;2022-10-30T10:09:02;8.93;;;6.03;;
20988;SDS011;10653;47.052;15.410;2022-10-30T10:14:03;10.60;;;5.53;;
20988;SDS011;10653;47.052;15.410;2022-10-30T10:16:33;8.10;;;4.80;;
20988;SDS011;10653;47.052;15.410;2022-10-30T10:21:42;10.90;;;5.47;;
20988;SDS011;10653;47.052;15.410;2022-10-30T10:24:13;12.70;;;6.00;;
20988;SDS011;10653;47.052;15.410;2022-10-30T10:29:25;10.93;;;5.73;;
20988;SDS011;10653;47.052;15.410;2022-10-30T10:32:05;7.50;;;6.10;;
20988;SDS011;10653;47.052;15.410;2022-10-30T10:39:47;10.63;;;5.23;;
20988;SDS011;10653;47.052;15.410;2022-10-30T10:52:09;8.13;;;6.47;;
20988;SDS011;10653;47.052;15.410;2022-10-30T10:54:41;8.27;;;6.20;;
20988;SDS011;10653;47.052;15.410;2022-10-30T10:57:11;13.23;;;6.43;;
20988;SDS011;10653;47.052;15.410;2022-10-30T10:59:44;8.50;;;6.23;;
20988;SDS011;10653;47.052;15.410;2022-10-30T11:07:47;10.43;;;5.90;;
20988;SDS011;10653;47.052;15.410;2022-10-30T11:10:14;7.93;;;5.77;;
20988;SDS011;10653;47.052;15.410;2022-10-30T11:12:40;7.37;;;6.00;;
20988;SDS011;10653;47.052;15.410;2022-10-30T11:17:50;9.10;;;5.00;;
20988;SDS011;10653;47.052;15.410;2022-10-30T11:20:24;6.57;;;5.20;;
20988;SDS011;10653;47.052;15.410;2022-10-30T11:22:53;7.63;;;4.87;;
20988;SDS011;10653;47.052;15.410;2022-10-30T11:25:23;7.70;;;5.43;;
20988;SDS011;10653;47.052;15.410;2022-10-30T11:27:56;6.43;;;5.17;;
20988;SDS011;10653;47.052;15.410;2022-10-30T11:30:24;7.67;;;4.90;;
20988;SDS011;10653;47.052;15.410;2022-10-30T11:32:52;10.53;;;5.80;;
20988;SDS011;10653;47.052;15.410;2022-10-30T11:35:18;10.07;;;5.80;;
20988;SDS011;10653;47.052;15.410;2022-10-30T11:37:46;8.67;;;5.70;;
20988;SDS011;10653;47.052;15.410;2022-10-30T11:42:42;11.47;;;5.50;;
20988;SDS011;10653;47.052;15.410;2022-10-30T11:45:14;6.23;;;5.00;;
20988;SDS011;10653;47.052;15.410;2022-10-30T11:47:41;13.27;;;5.93;;
20988;SDS011;10653;47.052;15.410;2022-10-30T11:50:18;8.27;;;6.13;;
20988;SDS011;10653;47.052;15.410;2022-10-30T11:52:44;8.17;;;4.97;;
20988;SDS011;10653;47.052;15.410;2022-10-30T11:55:18;6.83;;;5.23;;
20988;SDS011;10653;47.052;15.410;2022-10-30T11:57:46;7.83;;;4.43;;
20988;SDS011;10653;47.052;15.410;2022-10-30T12:00:14;15.70;;;5.10;;
20988;SDS011;10653;47.052;15.410;2022-10-30T12:02:42;9.60;;;5.53;;
20988;SDS011;10653;47.052;15.410;2022-10-30T12:05:50;9.30;;;5.20;;
20988;SDS011;10653;47.052;15.410;2022-10-30T12:10:45;6.27;;;4.60;;
20988;SDS011;10653;47.052;15.410;2022-10-30T12:13:15;9.73;;;4.50;;
20988;SDS011;10653;47.052;15.410;2022-10-30T12:15:41;13.00;;;4.67;;
20988;SDS011;10653;47.052;15.410;2022-10-30T12:18:14;8.00;;;4.67;;
20988;SDS011;10653;47.052;15.410;2022-10-30T12:20:41;8.90;;;5.33;;
20988;SDS011;10653;47.052;15.410;2022-10-30T12:23:16;7.23;;;4.80;;
20988;SDS011;10653;47.052;15.410;2022-10-30T12:25:48;6.00;;;4.80;;
20988;SDS011;10653;47.052;15.410;2022-10-30T12:28:16;12.43;;;5.77;;
20988;SDS011;10653;47.052;15.410;2022-10-30T12:30:45;7.40;;;4.50;;
20988;SDS011;10653;47.052;15.410;2022-10-30T12:33:15;8.60;;;4.50;;
20988;SDS011;10653;47.052;15.410;2022-10-30T12:35:50;10.10;;;5.50;;
20988;SDS011;10653;47.052;15.410;2022-10-30T12:38:22;8.60;;;5.47;;
20988;SDS011;10653;47.052;15.410;2022-10-30T12:43:23;9.67;;;4.73;;
20988;SDS011;10653;47.052;15.410;2022-10-30T12:45:51;8.03;;;5.20;;
20988;SDS011;10653;47.052;15.410;2022-10-30T12:56:05;8.87;;;4.40;;
20988;SDS011;10653;47.052;15.410;2022-10-30T12:58:48;7.70;;;5.00;;
20988;SDS011;10653;47.052;15.410;2022-10-30T13:01:26;7.57;;;5.07;;
20988;SDS011;10653;47.052;15.410;2022-10-30T13:04:18;9.87;;;5.00;;
20988;SDS011;10653;47.052;15.410;2022-10-30T13:12:04;7.77;;;5.40;;
20988;SDS011;10653;47.052;15.410;2022-10-30T13:14:35;8.07;;;5.40;;
20988;SDS011;10653;47.052;15.410;2022-10-30T13:17:03;9.00;;;5.90;;
20988;SDS011;10653;47.052;15.410;2022-10-30T13:19:29;15.43;;;5.87;;
20988;SDS011;10653;47.052;15.410;2022-10-30T13:21:59;9.97;;;5.97;;
20988;SDS011;10653;47.052;15.410;2022-10-30T13:29:28;11.73;;;6.07;;
20988;SDS011;10653;47.052;15.410;2022-10-30T13:32:05;10.23;;;5.87;;
20988;SDS011;10653;47.052;15.410;2022-10-30T13:34:39;11.43;;;5.83;;
20988;SDS011;10653;47.052;15.410;2022-10-30T13:48:03;8.83;;;5.70;;
20988;SDS011;10653;47.052;15.410;2022-10-30T13:51:00;8.03;;;6.20;;
20988;SDS011;10653;47.052;15.410;2022-10-30T13:53:19;11.47;;;6.43;;
20988;SDS011;10653;47.052;15.410;2022-10-30T13:55:46;12.63;;;5.87;;
20988;SDS011;10653;47.052;15.410;2022-10-30T14:10:53;7.80;;;5.80;;
20988;SDS011;10653;47.052;15.410;2022-10-30T14:13:27;9.67;;;5.57;;
20988;SDS011;10653;47.052;15.410;2022-10-30T14:18:24;9.10;;;5.43;;
20988;SDS011;10653;47.052;15.410;2022-10-30T14:20:51;10.10;;;5.63;;
20988;SDS011;10653;47.052;15.410;2022-10-30T14:23:33;10.20;;;5.30;;
20988;SDS011;10653;47.052;15.410;2022-10-30T14:28:29;13.23;;;5.33;;
20988;SDS011;10653;47.052;15.410;2022-10-30T14:31:15;9.33;;;5.20;;
20988;SDS011;10653;47.052;15.410;2022-10-30T14:33:49;9.67;;;5.10;;
20988;SDS011;10653;47.052;15.410;2022-10-30T14:36:22;10.30;;;5.13;;
20988;SDS011;10653;47.052;15.410;2022-10-30T14:38:58;9.60;;;5.07;;
20988;SDS011;10653;47.052;15.410;2022-10-30T14:41:36;9.03;;;4.23;;
20988;SDS011;10653;47.052;15.410;2022-10-30T14:46:36;13.73;;;6.30;;
20988;SDS011;10653;47.052;15.410;2022-10-30T14:51:53;9.67;;;5.00;;
20988;SDS011;10653;47.052;15.410;2022-10-30T14:54:32;10.13;;;5.63;;
20988;SDS011;10653;47.052;15.410;2022-10-30T14:57:02;8.97;;;5.60;;
20988;SDS011;10653;47.052;15.410;2022-10-30T14:59:31;10.80;;;5.53;;
20988;SDS011;10653;47.052;15.410;2022-10-30T15:10:24;9.27;;;5.97;;
20988;SDS011;10653;47.052;15.410;2022-10-30T15:15:30;11.00;;;6.57;;
20988;SDS011;10653;47.052;15.410;2022-10-30T15:18:10;9.50;;;6.63;;
20988;SDS011;10653;47.052;15.410;2022-10-30T15:20:39;14.17;;;6.20;;
20988;SDS011;10653;47.052;15.410;2022-10-30T15:23:09;8.53;;;6.37;;
20988;SDS011;10653;47.052;15.410;2022-10-30T15:25:38;9.50;;;6.03;;
20988;SDS011;10653;47.052;15.410;2022-10-30T15:28:11;9.53;;;6.03;;
20988;SDS011;10653;47.052;15.410;2022-10-30T15:30:39;13.87;;;6.20;;
20988;SDS011;10653;47.052;15.410;2022-10-30T15:33:22;11.17;;;8.00;;
20988;SDS011;10653;47.052;15.410;2022-10-30T15:35:48;21.60;;;14.17;;
20988;SDS011;10653;47.052;15.410;2022-10-30T15:38:14;80.80;;;52.80;;
20988;SDS011;10653;47.052;15.410;2022-10-30T15:40:40;33.90;;;26.50;;
20988;SDS011;10653;47.052;15.410;2022-10-30T15:43:07;18.53;;;14.07;;
20988;SDS011;10653;47.052;15.410;2022-10-30T15:45:36;16.93;;;11.43;;
20988;SDS011;10653;47.052;15.410;2022-10-30T15:48:05;15.93;;;11.70;;
20988;SDS011;10653;47.052;15.410;2022-10-30T15:50:32;16.07;;;9.57;;
20988;SDS011;10653;47.052;15.410;2022-10-30T15:52:58;15.60;;;10.10;;
20988;SDS011;10653;47.052;15.410;2022-10-30T15:55:25;13.90;;;8.30;;
20988;SDS011;10653;47.052;15.410;2022-10-30T15:57:52;12.27;;;8.40;;
20988;SDS011;10653;47.052;15.410;2022-10-30T16:00:27;13.70;;;9.47;;
20988;SDS011;10653;47.052;15.410;2022-10-30T16:02:58;14.87;;;9.20;;
20988;SDS011;10653;47.052;15.410;2022-10-30T16:05:24;12.80;;;9.70;;
20988;SDS011;10653;47.052;15.410;2022-10-30T16:07:53;11.10;;;9.17;;
20988;SDS011;10653;47.052;15.410;2022-10-30T16:10:19;24.30;;;15.90;;
20988;SDS011;10653;47.052;15.410;2022-10-30T16:12:47;31.20;;;22.00;;
20988;SDS011;10653;47.052;15.410;2022-10-30T16:15:46;21.70;;;17.67;;
20988;SDS011;10653;47.052;15.410;2022-10-30T16:18:18;23.67;;;15.73;;
20988;SDS011;10653;47.052;15.410;2022-10-30T16:20:49;20.50;;;16.40;;
20988;SDS011;10653;47.052;15.410;2022-10-30T16:23:16;22.30;;;17.20;;
20988;SDS011;10653;47.052;15.410;2022-10-30T16:25:42;21.80;;;17.53;;
20988;SDS011;10653;47.052;15.410;2022-10-30T16:30:55;18.77;;;13.07;;
20988;SDS011;10653;47.052;15.410;2022-10-30T16:33:23;18.37;;;12.83;;
20988;SDS011;10653;47.052;15.410;2022-10-30T16:35:51;18.90;;;11.57;;
20988;SDS011;10653;47.052;15.410;2022-10-30T16:38:18;13.10;;;10.00;;
20988;SDS011;10653;47.052;15.410;2022-10-30T16:40:44;25.57;;;11.77;;
20988;SDS011;10653;47.052;15.410;2022-10-30T16:43:24;12.50;;;10.80;;
20988;SDS011;10653;47.052;15.410;2022-10-30T16:45:50;16.97;;;12.23;;
20988;SDS011;10653;47.052;15.410;2022-10-30T16:48:26;15.93;;;10.03;;
20988;SDS011;10653;47.052;15.410;2022-10-30T16:50:57;18.70;;;12.43;;